WetterOnline ( https://www.wetteronline.de )

Wetter aktuell Kleinwalsertal (in 1100m)

Aktuelles Wetter: Oberstdorf (812m)

6-stündlich | Neueste Meldungen
Ortszeit Temperatur Wetter
Do, 23.05. 20:00 15.1° C leicht bewölkt
Do, 23.05. 14:00 17.9° C fast wolkenlos
Do, 23.05. 8:00 6.7° C wolkenlos
Do, 23.05. 2:00 5.8° C bewölkt
Mi, 22.05. 20:00 11.5° C bewölkt
Mi, 22.05. 14:00 10.7° C Regen
Mi, 22.05. 8:00 7.9° C leichter Regen
Mi, 22.05. 2:00 7.5° C leichter Regen
Ortszeit Temperatur Wetter
Do, 23.05. 20:30 13.0° C wolkig
Do, 23.05. 20:10 12.8° C wolkig
Do, 23.05. 20:00 15.1° C leicht bewölkt
Do, 23.05. 19:50 15.1° C leicht bewölkt
Do, 23.05. 19:40 15.6° C leicht bewölkt
Do, 23.05. 19:30 17.1° C leicht bewölkt
Do, 23.05. 19:00 17.7° C fast wolkenlos
Do, 23.05. 18:30 17.9° C fast wolkenlos
Do, 23.05. 18:00 18.4° C leicht bewölkt
Do, 23.05. 17:30 18.6° C wolkig
Ortszeit Relative Feuchte Sichtweite
Do, 23.05. 20:00 61% 45 km
Do, 23.05. 14:00 48% 35 km
Do, 23.05. 8:00 94% 20 km
Do, 23.05. 2:00 96% 14 km
Mi, 22.05. 20:00 83% 65 km
Mi, 22.05. 14:00 73% 70 km
Mi, 22.05. 8:00 94% 16 km
Mi, 22.05. 2:00 95% 12 km
Ortszeit Relative Feuchte Sichtweite
Do, 23.05. 20:30 73% 40 km
Do, 23.05. 20:10 75% -
Do, 23.05. 20:00 61% 45 km
Do, 23.05. 19:50 61% -
Do, 23.05. 19:40 61% -
Do, 23.05. 19:30 49% 35 km
Do, 23.05. 19:00 48% 30 km
Do, 23.05. 18:30 48% 30 km
Do, 23.05. 18:00 45% 30 km
Do, 23.05. 17:30 43% 28 km
Ortszeit Niederschlagsmenge Niederschlagsart
Do, 23.05. 20:00 0.0 l/m2 in 12 Std. -
Do, 23.05. 14:00 0.0 l/m2 in 6 Std. -
Do, 23.05. 8:00 0.0 l/m2 in 12 Std. -
Do, 23.05. 2:00 0.0 l/m2 in 6 Std. -
Mi, 22.05. 20:00 2 l/m2 in 12 Std. Regen
Mi, 22.05. 14:00 2 l/m2 in 6 Std. Regen
Mi, 22.05. 8:00 12 l/m2 in 12 Std. Regen
Mi, 22.05. 2:00 6 l/m2 in 6 Std. Regen
Ortszeit Niederschlagsmenge Niederschlagsart
Do, 23.05. 20:30 0.0 l/m2 in 1 Std. -
Do, 23.05. 20:10 keine Meldung -
Do, 23.05. 20:00 0.0 l/m2 in 1 Std. -
Do, 23.05. 19:50 keine Meldung -
Do, 23.05. 19:40 keine Meldung -
Do, 23.05. 19:30 0.0 l/m2 in 1 Std. -
Do, 23.05. 19:00 0.0 l/m2 in 1 Std. -
Do, 23.05. 18:30 0.0 l/m2 in 1 Std. -
Do, 23.05. 18:00 0.0 l/m2 in 1 Std. -
Do, 23.05. 17:30 0.0 l/m2 in 1 Std. -
Ortszeit Stärke Spitze Richtung
km/h Bft. km/h Grad Sektor
Do, 23.05. 20:00 7 2 30 280° W
Do, 23.05. 14:00 13 3 26 360° N
Do, 23.05. 8:00 4 1 18 60° NO
Do, 23.05. 2:00 6 1 19 150° SO
Mi, 22.05. 20:00 11 2 18 150° SO
Mi, 22.05. 14:00 6 1 17 320° NW
Mi, 22.05. 8:00 9 2 13 160° S
Mi, 22.05. 2:00 7 2 14 170° S
Ortszeit Stärke Spitze Richtung
km/h Bft. km/h Grad Sektor
Do, 23.05. 20:30 4 1 11 160° S
Do, 23.05. 20:10 6 1 - 230° SW
Do, 23.05. 20:00 7 2 20 280° W
Do, 23.05. 19:50 7 2 - 280° W
Do, 23.05. 19:40 7 2 - 310° NW
Do, 23.05. 19:30 11 2 22 330° NW
Do, 23.05. 19:00 14 3 22 330° NW
Do, 23.05. 18:30 14 3 22 330° NW
Do, 23.05. 18:00 11 2 29 350° N
Do, 23.05. 17:30 14 3 25 350° N
Ortszeit Untergrenze Bedeckung Gattung
total tief tief mittel hoch
Do, 23.05. 20:00 10500 m 6/8 0/8 - - -
Do, 23.05. 14:00 9000 m 1/8 0/8 - - -
Do, 23.05. 8:00 - 0/8 0/8 - - -
Do, 23.05. 2:00 1410 m 7/8 7/8 - - -
Mi, 22.05. 20:00 1350 m 8/8 7/8 - - -
Mi, 22.05. 14:00 510 m 8/8 8/8 - - -
Mi, 22.05. 8:00 1020 m 8/8 8/8 - - -
Mi, 22.05. 2:00 930 m 7/8 7/8 - - -
Ortszeit Bedeckungsgrad in Achtel und Wolkenuntergrenze
Do, 23.05. 20:30 2(1500m) 7(10500m)
Do, 23.05. 20:10 3(1500m) 7(10500m)
Do, 23.05. 20:00 6(10500m)
Do, 23.05. 19:50 6(10500m)
Do, 23.05. 19:40 4(10500m)
Do, 23.05. 19:30 4(10500m)
Do, 23.05. 19:00 2(10500m)
Do, 23.05. 18:30 1(10500m)
Do, 23.05. 18:00 6(10500m)
Do, 23.05. 17:30 2(2100m) 7(10500m)
Ortszeit Stationsdruck (hPa) Tendenz (hPa in 3 Std.)
Do, 23.05. 20:00 924 - 0,1
Do, 23.05. 14:00 925 - 0,9
Do, 23.05. 8:00 927 - 0,2
Do, 23.05. 2:00 927 0,0
Mi, 22.05. 20:00 926 - 0,2
Mi, 22.05. 14:00 926 + 0,9
Mi, 22.05. 8:00 925 + 0,6
Mi, 22.05. 2:00 924 + 0,3
Ortszeit Stationsdruck (hPa) Tendenz (hPa in 3 Std.)
Do, 23.05. 20:30 924 0,0
Do, 23.05. 20:10 924 keine Meldung
Do, 23.05. 20:00 924 - 0,1
Do, 23.05. 19:50 924 keine Meldung
Do, 23.05. 19:40 924 keine Meldung
Do, 23.05. 19:30 924 - 0,3
Do, 23.05. 19:00 924 - 0,4
Do, 23.05. 18:30 924 - 0,6
Do, 23.05. 18:00 924 - 0,7
Do, 23.05. 17:30 924 - 0,7
Ortszeit Schneehöhe (cm)
Do, 23.05. 20:00 -
Do, 23.05. 14:00 -
Do, 23.05. 8:00 -
Do, 23.05. 2:00 -
Mi, 22.05. 20:00 -
Mi, 22.05. 14:00 -
Mi, 22.05. 8:00 -
Mi, 22.05. 2:00 -
Ortszeit Schneehöhe (cm)
Do, 23.05. 20:30 -
Do, 23.05. 20:10 -
Do, 23.05. 20:00 -
Do, 23.05. 19:50 -
Do, 23.05. 19:40 -
Do, 23.05. 19:30 -
Do, 23.05. 19:00 -
Do, 23.05. 18:30 -
Do, 23.05. 18:00 -
Do, 23.05. 17:30 -
Link zu dieser Seite / Seite empfehlen

Das Wetter in ...